createdAt,value
2023-05-05T00:03:31.148Z,2.2
2023-05-05T00:04:40.732Z,1.3
2023-05-05T00:05:49.429Z,3.2
2023-05-05T00:06:58.137Z,2
2023-05-05T00:08:06.857Z,2.3
2023-05-05T00:09:16.576Z,1.7
2023-05-05T00:10:25.290Z,2.3
2023-05-05T00:11:34.025Z,2.7
2023-05-05T00:12:43.723Z,1.5
2023-05-05T00:13:52.449Z,1.5
2023-05-05T00:15:02.133Z,2.4
2023-05-05T00:16:10.862Z,2
2023-05-05T00:17:18.772Z,2.6
2023-05-05T00:18:28.350Z,3.7
2023-05-05T00:19:38.193Z,2.4
2023-05-05T00:20:45.810Z,1.3
2023-05-05T00:21:55.510Z,4.5
2023-05-05T00:23:05.191Z,2.3
2023-05-05T00:24:13.868Z,1.9
2023-05-05T00:25:22.616Z,2.7
2023-05-05T00:26:30.306Z,1.5
2023-05-05T00:27:40.994Z,2.6
2023-05-05T00:28:49.702Z,8.6
2023-05-05T00:29:59.426Z,2.1
2023-05-05T00:31:08.114Z,1.3
2023-05-05T00:32:15.790Z,2
2023-05-05T00:33:25.446Z,1.6
2023-05-05T00:34:35.181Z,2.1
2023-05-05T00:35:44.914Z,1.5
2023-05-05T00:36:54.540Z,2.4
2023-05-05T00:38:03.249Z,4.5
2023-05-05T00:39:12.935Z,3.1
2023-05-05T00:40:22.644Z,1.5
2023-05-05T00:41:31.363Z,2
2023-05-05T00:42:40.082Z,1.8
2023-05-05T00:43:49.773Z,1.7
2023-05-05T00:44:59.474Z,2.6
2023-05-05T00:46:08.207Z,5.3
2023-05-05T00:47:16.915Z,5.4
2023-05-05T00:48:26.807Z,5.1
2023-05-05T00:49:36.560Z,3.5
2023-05-05T00:50:44.227Z,3.1
2023-05-05T00:51:53.966Z,1.4
2023-05-05T00:53:02.616Z,1.7
2023-05-05T00:54:11.368Z,3.7
2023-05-05T00:55:20.143Z,1.5
2023-05-05T00:56:28.844Z,1.3
2023-05-05T00:57:38.553Z,2.6
2023-05-05T00:58:47.241Z,1.4
2023-05-05T00:59:56.929Z,1.9
2023-05-05T01:01:06.590Z,2.3
2023-05-05T01:02:15.249Z,2
2023-05-05T01:03:24.066Z,3.5
2023-05-05T01:04:32.752Z,2.5
2023-05-05T01:05:41.406Z,2.4
2023-05-05T01:06:51.082Z,1
2023-05-05T01:07:59.813Z,2
2023-05-05T01:09:08.586Z,1.6
2023-05-05T01:10:20.067Z,2.4
2023-05-05T01:11:26.889Z,2.4
2023-05-05T01:12:35.597Z,1.9
2023-05-05T01:13:44.333Z,2.6
2023-05-05T01:14:51.976Z,1.9
2023-05-05T01:16:01.687Z,1
2023-05-05T01:17:10.428Z,2.1
2023-05-05T01:18:18.160Z,1.8
2023-05-05T01:19:27.834Z,1.9
2023-05-05T01:20:36.540Z,2.1
2023-05-05T01:21:45.208Z,1.6
2023-05-05T01:22:53.909Z,2.5
2023-05-05T01:24:03.676Z,1.4
2023-05-05T01:25:13.416Z,1.9
2023-05-05T01:26:22.041Z,2.1
2023-05-05T01:27:31.748Z,2.3
2023-05-05T01:28:41.408Z,1.2
2023-05-05T01:29:50.080Z,2.9
2023-05-05T01:30:58.758Z,2.8
2023-05-05T01:32:08.461Z,2.1
2023-05-05T01:33:17.168Z,2.2
2023-05-05T01:34:26.860Z,1.5
2023-05-05T01:35:35.574Z,2.8
2023-05-05T01:36:45.252Z,3.8
2023-05-05T01:37:54.992Z,2.5
2023-05-05T01:39:04.684Z,1.6
2023-05-05T01:40:14.405Z,2.3
2023-05-05T01:41:24.049Z,1.4
2023-05-05T01:42:31.786Z,1.5
2023-05-05T01:43:40.456Z,2
2023-05-05T01:44:49.156Z,2.1
2023-05-05T01:45:56.851Z,1.4
2023-05-05T01:47:06.580Z,1.9
2023-05-05T01:48:15.227Z,2.6
2023-05-05T01:49:23.923Z,2.6
2023-05-05T01:50:33.605Z,1.6
2023-05-05T01:51:42.344Z,2.7
2023-05-05T01:52:52.038Z,1.8
2023-05-05T01:54:00.734Z,2.2
2023-05-05T01:55:08.384Z,3.1
2023-05-05T01:56:18.151Z,1.6
2023-05-05T01:57:26.786Z,2.4
2023-05-05T01:58:34.523Z,1.9
2023-05-05T01:59:43.180Z,1.9
2023-05-05T02:00:50.974Z,2
2023-05-05T02:02:00.767Z,2.1
2023-05-05T02:03:09.428Z,2.9
2023-05-05T02:04:17.020Z,2.9
2023-05-05T02:05:26.781Z,1.5
2023-05-05T02:06:35.524Z,2.6
2023-05-05T02:07:44.177Z,2.3
2023-05-05T02:08:52.898Z,1.9
2023-05-05T02:09:59.587Z,2.8
2023-05-05T02:11:09.255Z,4
2023-05-05T02:12:18.966Z,1.7
2023-05-05T02:13:26.642Z,2.5
2023-05-05T02:14:36.350Z,1.9
2023-05-05T02:15:45.034Z,2.5
2023-05-05T02:16:53.806Z,2.2
2023-05-05T02:18:02.533Z,3.3
2023-05-05T02:19:11.163Z,2.5
2023-05-05T02:20:20.927Z,1.6
2023-05-05T02:21:30.600Z,2.7
2023-05-05T02:22:38.287Z,2.1
2023-05-05T02:23:48.084Z,1.9
2023-05-05T02:24:56.824Z,2
2023-05-05T02:26:06.499Z,2.5
2023-05-05T02:27:14.181Z,1.9
2023-05-05T02:28:23.921Z,2.4
2023-05-05T02:29:33.647Z,1.4
2023-05-05T02:30:42.383Z,2.9
2023-05-05T02:31:52.170Z,1.6
2023-05-05T02:33:00.861Z,1.7
2023-05-05T02:34:08.624Z,2.2
2023-05-05T02:35:18.283Z,1.9
2023-05-05T02:36:26.936Z,2.2
2023-05-05T02:37:35.592Z,1.9
2023-05-05T02:38:44.305Z,2.8
2023-05-05T02:39:51.978Z,2.3
2023-05-05T02:41:01.670Z,1.7
2023-05-05T02:42:10.331Z,2
2023-05-05T02:43:19.049Z,2
2023-05-05T02:44:27.769Z,2.1
2023-05-05T02:45:37.489Z,2.2
2023-05-05T02:46:47.221Z,1.8
2023-05-05T02:47:55.884Z,2.6
2023-05-05T02:49:04.515Z,3.1
2023-05-05T02:50:14.192Z,1.9
2023-05-05T02:51:23.873Z,2.3
2023-05-05T02:52:33.577Z,2.4
2023-05-05T02:53:43.237Z,2
2023-05-05T02:54:51.896Z,2.3
2023-05-05T02:56:00.575Z,2
2023-05-05T02:57:08.339Z,2.3
2023-05-05T02:58:15.989Z,1.9
2023-05-05T02:59:25.719Z,2.3
2023-05-05T03:00:34.406Z,2.3
2023-05-05T03:01:43.184Z,2.4
2023-05-05T03:02:52.873Z,2.7
2023-05-05T03:04:02.544Z,2.7
2023-05-05T03:05:11.233Z,2.6
2023-05-05T03:06:20.012Z,2.8
2023-05-05T03:07:27.692Z,1.5
2023-05-05T03:08:37.407Z,2.6
2023-05-05T03:09:46.047Z,4.9
2023-05-05T03:10:54.814Z,2.4
2023-05-05T03:12:04.577Z,2.1
2023-05-05T03:13:14.274Z,3.7
2023-05-05T03:14:22.902Z,1.7
2023-05-05T03:15:31.619Z,1.3
2023-05-05T03:16:41.435Z,2.5
2023-05-05T03:17:51.169Z,3.9
2023-05-05T03:18:59.737Z,2.4
2023-05-05T03:20:07.559Z,1.8
2023-05-05T03:21:17.143Z,8.5
2023-05-05T03:22:25.834Z,1.7
2023-05-05T03:23:34.671Z,2.2
2023-05-05T03:24:43.400Z,1.4
2023-05-05T03:25:51.106Z,2.1
2023-05-05T03:27:00.840Z,1.9
2023-05-05T03:28:10.512Z,1.9
2023-05-05T03:29:18.350Z,2.4
2023-05-05T03:30:27.104Z,1.9
2023-05-05T03:31:35.829Z,1.3
2023-05-05T03:32:45.501Z,2.4
2023-05-05T03:33:55.203Z,1.9
2023-05-05T03:35:03.902Z,2.4
2023-05-05T03:36:13.637Z,2.9
2023-05-05T03:37:22.287Z,2.8
2023-05-05T03:38:30.991Z,2.5
2023-05-05T03:39:40.729Z,1.3
2023-05-05T03:40:49.397Z,2.8
2023-05-05T03:41:58.048Z,1.6
2023-05-05T03:43:07.753Z,3.1
2023-05-05T03:44:16.501Z,3.9
2023-05-05T03:45:26.188Z,3.1
2023-05-05T03:46:35.895Z,2.8
2023-05-05T03:47:43.616Z,2.1
2023-05-05T03:48:53.382Z,3.6
2023-05-05T03:50:02.113Z,2.9
2023-05-05T03:51:10.829Z,3
2023-05-05T03:52:20.505Z,3.4
2023-05-05T03:53:28.256Z,3.3
2023-05-05T03:54:37.997Z,2.3
2023-05-05T03:55:46.658Z,3.2
2023-05-05T03:56:54.359Z,2.1
2023-05-05T03:58:04.110Z,1.3
2023-05-05T03:59:13.781Z,1.8
2023-05-05T04:00:22.516Z,1.6
2023-05-05T04:01:31.335Z,1.5
2023-05-05T04:02:40.161Z,1.2
2023-05-05T04:03:49.865Z,1.1
2023-05-05T04:04:58.527Z,2.2
2023-05-05T04:06:07.373Z,2
2023-05-05T04:07:17.116Z,1.6
2023-05-05T04:08:25.776Z,1.8
2023-05-05T04:09:35.496Z,2.2
2023-05-05T04:10:44.183Z,1.8
2023-05-05T04:11:52.874Z,2.8
2023-05-05T04:13:02.638Z,1.7
2023-05-05T04:14:12.246Z,1.8
2023-05-05T04:15:20.918Z,1.7
2023-05-05T04:16:30.729Z,1.6
2023-05-05T04:17:40.384Z,2.4
2023-05-05T04:18:50.113Z,1.7
2023-05-05T04:19:58.782Z,1.3
2023-05-05T04:21:08.540Z,2.7
2023-05-05T04:22:18.246Z,2.8
2023-05-05T04:23:27.944Z,1.7
2023-05-05T04:24:37.680Z,1.5
2023-05-05T04:25:46.510Z,1.4
2023-05-05T04:26:55.232Z,1.8
2023-05-05T04:28:04.909Z,2
2023-05-05T04:29:14.587Z,1.6
2023-05-05T04:30:23.285Z,1.6
2023-05-05T04:31:31.986Z,2.4
2023-05-05T04:32:39.647Z,1.7
2023-05-05T04:33:49.279Z,3.2
2023-05-05T04:34:57.957Z,1.4
2023-05-05T04:36:06.720Z,1.8
2023-05-05T04:37:16.415Z,2.7
2023-05-05T04:38:25.136Z,1.3
2023-05-05T04:39:33.927Z,2
2023-05-05T04:40:43.659Z,4.4
2023-05-05T04:41:51.334Z,1.9
2023-05-05T04:43:01.122Z,1.3
2023-05-05T04:44:09.824Z,5.5
2023-05-05T04:45:17.527Z,2
2023-05-05T04:46:27.231Z,3.3
2023-05-05T04:47:35.960Z,2.8
2023-05-05T04:48:44.599Z,1.4
2023-05-05T04:49:54.360Z,2.7
2023-05-05T04:51:01.996Z,1.6
2023-05-05T04:52:11.696Z,1.5
2023-05-05T04:53:21.386Z,2.8
2023-05-05T04:54:29.061Z,2
2023-05-05T04:55:38.766Z,1
2023-05-05T04:56:47.461Z,1.8
2023-05-05T04:57:56.119Z,2.2
2023-05-05T04:59:04.840Z,0.7
2023-05-05T05:00:14.495Z,0.7
2023-05-05T05:01:25.407Z,2.2
2023-05-05T05:02:34.089Z,2.2
2023-05-05T05:03:42.801Z,1.4
2023-05-05T05:04:52.466Z,1.2
2023-05-05T05:06:01.157Z,1.6
2023-05-05T05:07:09.901Z,1.5
2023-05-05T05:08:19.622Z,0.8
2023-05-05T05:09:29.303Z,1.5
2023-05-05T05:10:38.943Z,0.7
2023-05-05T05:11:46.641Z,1.7
2023-05-05T05:12:55.381Z,1.6
2023-05-05T05:14:05.087Z,1.6
2023-05-05T05:15:13.738Z,0.6
2023-05-05T05:16:22.412Z,1
2023-05-05T05:17:32.107Z,1.9
2023-05-05T05:18:40.806Z,1.6
2023-05-05T05:19:50.600Z,1.8
2023-05-05T05:21:00.278Z,1.6
2023-05-05T05:22:09.960Z,2.1
2023-05-05T05:23:19.655Z,1.4
2023-05-05T05:24:29.329Z,1.2
2023-05-05T05:25:39.026Z,1.7
2023-05-05T05:26:48.738Z,1.2
2023-05-05T05:28:08.719Z,1.2
2023-05-05T05:29:09.072Z,1.7
2023-05-05T05:30:17.738Z,1
2023-05-05T05:31:26.426Z,1.4
2023-05-05T05:32:36.148Z,1
2023-05-05T05:33:44.799Z,1.8
2023-05-05T05:34:53.498Z,1.3
2023-05-05T05:36:02.228Z,0.9
2023-05-05T05:37:09.921Z,1.6
2023-05-05T05:38:19.583Z,1.3
2023-05-05T05:39:29.225Z,2.4
2023-05-05T05:40:36.921Z,1.2
2023-05-05T05:41:46.623Z,0.9
2023-05-05T05:42:56.374Z,1.3
2023-05-05T05:44:05.061Z,1.3
2023-05-05T05:45:14.735Z,2.3
2023-05-05T05:46:23.505Z,1.3
2023-05-05T05:47:33.207Z,1.9
2023-05-05T05:48:42.876Z,1.2
2023-05-05T05:49:50.566Z,1.2
2023-05-05T05:50:59.301Z,1
2023-05-05T05:52:08.947Z,1.7
2023-05-05T05:53:17.679Z,1.3
2023-05-05T05:54:26.399Z,0.9
2023-05-05T05:55:34.126Z,0.7
2023-05-05T05:56:43.783Z,0.8
2023-05-05T05:57:52.530Z,1.3
2023-05-05T05:59:02.190Z,0.9
2023-05-05T06:00:11.866Z,0.6
2023-05-05T06:01:20.602Z,1.3
2023-05-05T06:02:29.315Z,1.1
2023-05-05T06:03:38.053Z,1.3
2023-05-05T06:04:45.719Z,2.8
2023-05-05T06:05:55.457Z,1
2023-05-05T06:07:03.143Z,1.2
2023-05-05T06:08:11.793Z,1.7
2023-05-05T06:09:21.451Z,2
2023-05-05T06:10:31.334Z,1.6
2023-05-05T06:11:40.916Z,0.9
2023-05-05T06:12:49.639Z,1.5
2023-05-05T06:13:59.324Z,0.6
2023-05-05T06:15:09.023Z,1.8
2023-05-05T06:16:15.736Z,1.2
2023-05-05T06:17:23.359Z,1
2023-05-05T06:18:33.057Z,0.9
2023-05-05T06:19:42.794Z,1.7
2023-05-05T06:20:51.524Z,0.6
2023-05-05T06:22:01.276Z,0.8
2023-05-05T06:23:10.998Z,0.9
2023-05-05T06:24:19.728Z,1.2
2023-05-05T06:25:28.402Z,1
2023-05-05T06:26:38.087Z,1
2023-05-05T06:27:46.755Z,1.3
2023-05-05T06:28:56.486Z,0.9
2023-05-05T06:30:06.366Z,1.1
2023-05-05T06:31:14.918Z,1
2023-05-05T06:32:23.601Z,1
2023-05-05T06:33:32.269Z,2.1
2023-05-05T06:34:39.979Z,1
2023-05-05T06:35:49.680Z,1.3
2023-05-05T06:36:58.337Z,1
2023-05-05T06:38:06.029Z,0.7
2023-05-05T06:39:16.690Z,1.9
2023-05-05T06:40:25.382Z,1.8
2023-05-05T06:41:34.116Z,0.9
2023-05-05T06:42:42.788Z,0.9
2023-05-05T06:43:51.474Z,0.9
2023-05-05T06:45:01.164Z,2
2023-05-05T06:46:10.886Z,0.6
2023-05-05T06:47:18.571Z,0.6
2023-05-05T06:48:28.266Z,0.6
2023-05-05T06:49:36.935Z,0.7
2023-05-05T06:50:45.645Z,0.7
2023-05-05T06:51:54.331Z,0.9
2023-05-05T06:53:03.045Z,1.8
2023-05-05T06:54:12.703Z,0.4
2023-05-05T06:55:21.378Z,0.7
2023-05-05T06:56:29.036Z,1.9
2023-05-05T06:57:38.776Z,0.8
2023-05-05T06:58:47.443Z,1.1
2023-05-05T06:59:57.127Z,1.6
2023-05-05T07:01:05.796Z,1.2
2023-05-05T07:02:15.617Z,0.7
2023-05-05T07:03:25.256Z,0.6
2023-05-05T07:04:33.933Z,0.8
2023-05-05T07:05:41.603Z,0.8
2023-05-05T07:06:50.381Z,0.9
2023-05-05T07:08:00.106Z,0.5
2023-05-05T07:09:08.793Z,1.5
2023-05-05T07:10:17.471Z,0.8
2023-05-05T07:11:26.183Z,1.2
2023-05-05T07:12:35.938Z,1.1
2023-05-05T07:13:44.603Z,0.6
2023-05-05T07:14:52.332Z,1.4
2023-05-05T07:16:02.043Z,1.7
2023-05-05T07:18:21.533Z,0.6
2023-05-05T07:19:31.071Z,1
2023-05-05T07:20:38.743Z,0.6
2023-05-05T07:21:48.723Z,0.9
2023-05-05T07:22:57.412Z,0.8
2023-05-05T07:24:05.080Z,1
2023-05-05T07:25:13.746Z,0.5
2023-05-05T07:26:22.511Z,0.6
2023-05-05T07:27:31.247Z,0.7
2023-05-05T07:28:39.905Z,0.8
2023-05-05T07:29:47.571Z,0.9
2023-05-05T07:30:57.253Z,0.9
2023-05-05T07:32:05.941Z,0.4
2023-05-05T07:33:13.604Z,1
2023-05-05T07:34:23.362Z,2.2
2023-05-05T07:35:32.942Z,0.5
2023-05-05T07:36:42.767Z,0.3
2023-05-05T07:37:51.427Z,1.1
2023-05-05T07:38:59.088Z,0.8
2023-05-05T07:40:08.971Z,0.5
2023-05-05T07:41:17.444Z,2
2023-05-05T07:42:25.156Z,1.8
2023-05-05T07:43:34.851Z,2.2
2023-05-05T07:44:43.565Z,1.2
2023-05-05T07:45:52.258Z,2.5
2023-05-05T07:46:59.914Z,0.8
2023-05-05T07:48:08.660Z,1.3
2023-05-05T07:49:18.323Z,0.8
2023-05-05T07:50:28.148Z,1.4
2023-05-05T07:51:38.044Z,1.2
2023-05-05T07:52:53.846Z,0.7
2023-05-05T07:53:57.403Z,1.3
2023-05-05T07:55:06.101Z,1.4
2023-05-05T07:56:14.840Z,1.2
2023-05-05T07:57:23.497Z,0.9
2023-05-05T07:58:33.204Z,0.3
2023-05-05T07:59:41.882Z,1
2023-05-05T08:00:51.567Z,0.6
2023-05-05T08:02:01.252Z,0.7
2023-05-05T08:03:11.790Z,0.4
2023-05-05T08:04:19.701Z,1.1
2023-05-05T08:05:28.320Z,0.6
2023-05-05T08:06:38.092Z,0.5
2023-05-05T08:07:47.726Z,1
2023-05-05T08:08:55.550Z,1.2
2023-05-05T08:10:03.203Z,0.4
2023-05-05T08:11:12.887Z,0.5
2023-05-05T08:12:21.666Z,0.5
2023-05-05T08:13:30.358Z,1.2
2023-05-05T08:14:39.069Z,0.6
2023-05-05T08:15:46.804Z,0.3
2023-05-05T08:16:56.600Z,6.9
2023-05-05T08:18:06.307Z,0.4
2023-05-05T08:19:25.226Z,1.1
2023-05-05T08:20:26.678Z,0.4
2023-05-05T08:21:35.385Z,0.1
2023-05-05T08:22:45.307Z,1
2023-05-05T08:23:54.801Z,0.5
2023-05-05T08:25:03.485Z,0.3
2023-05-05T08:26:13.155Z,1.2
2023-05-05T08:27:20.898Z,0.8
2023-05-05T08:28:29.569Z,0.4
2023-05-05T08:29:39.207Z,1.2
2023-05-05T08:30:47.878Z,0.5
2023-05-05T08:31:57.589Z,0.5
2023-05-05T08:33:06.272Z,1.7
2023-05-05T08:34:14.966Z,0.3
2023-05-05T08:35:24.729Z,0.6
2023-05-05T08:36:32.393Z,1.4
2023-05-05T08:37:41.080Z,0.6
2023-05-05T08:38:50.379Z,0.6
2023-05-05T08:39:57.480Z,0.5
2023-05-05T08:41:07.187Z,0.8
2023-05-05T08:42:25.703Z,0.9
2023-05-05T08:43:27.503Z,0.9
2023-05-05T08:44:36.194Z,0.5
2023-05-05T08:45:43.976Z,0.3
2023-05-05T08:46:53.691Z,0.6
2023-05-05T08:48:03.363Z,0.5
2023-05-05T08:49:12.017Z,0.7
2023-05-05T08:50:21.772Z,0.2
2023-05-05T08:51:31.420Z,3.2
2023-05-05T08:52:40.195Z,2
2023-05-05T08:53:49.857Z,1.1
2023-05-05T08:54:59.705Z,0.3
2023-05-05T08:56:09.327Z,2.3
2023-05-05T08:57:18.007Z,0.6
2023-05-05T08:58:28.894Z,1.2
2023-05-05T08:59:36.350Z,1.3
2023-05-05T09:00:45.112Z,1.6
2023-05-05T09:01:54.763Z,0.3
2023-05-05T09:03:03.484Z,0.8
2023-05-05T09:04:11.094Z,1.3
2023-05-05T09:05:20.773Z,0.6
2023-05-05T09:06:30.427Z,0.4
2023-05-05T09:07:38.120Z,0.6
2023-05-05T09:08:47.828Z,0.6
2023-05-05T09:09:57.572Z,0.4
2023-05-05T09:11:07.843Z,1.6
2023-05-05T09:12:16.958Z,0.3
2023-05-05T09:13:24.603Z,1.3
2023-05-05T09:14:34.354Z,1.5
2023-05-05T09:15:44.039Z,2
2023-05-05T09:16:51.811Z,0.8
2023-05-05T09:18:00.608Z,0.7
2023-05-05T09:19:10.358Z,0.4
2023-05-05T09:20:20.080Z,0.5
2023-05-05T09:21:29.728Z,0.6
2023-05-05T09:22:39.455Z,0.7
2023-05-05T09:23:49.129Z,0.9
2023-05-05T09:24:58.784Z,0.7
2023-05-05T09:26:06.457Z,1.1
2023-05-05T09:27:16.252Z,0.8
2023-05-05T09:28:24.856Z,1
2023-05-05T09:29:32.581Z,1.5
2023-05-05T09:30:41.249Z,0.9
2023-05-05T09:31:48.918Z,2.5
2023-05-05T09:32:58.644Z,2.2
2023-05-05T09:34:07.328Z,2.8
2023-05-05T09:35:14.983Z,1.7
2023-05-05T09:36:23.678Z,2.7
2023-05-05T09:37:33.395Z,1.3
2023-05-05T09:38:43.051Z,1.6
2023-05-05T09:39:52.782Z,0.5
2023-05-05T09:41:01.446Z,2.4
2023-05-05T09:42:11.152Z,1
2023-05-05T09:43:20.984Z,0.9
2023-05-05T09:44:28.523Z,3.6
2023-05-05T09:45:38.218Z,1.7
2023-05-05T09:46:47.055Z,2.6
2023-05-05T09:48:00.025Z,1.3
2023-05-05T09:49:07.467Z,2.6
2023-05-05T09:50:15.130Z,203.5
2023-05-05T09:51:24.933Z,1145.6999
2023-05-05T09:52:34.583Z,1830.3
2023-05-05T09:53:42.288Z,1823.0999
2023-05-05T09:54:52.040Z,1789.5
2023-05-05T09:56:01.724Z,1609.9
2023-05-05T09:57:10.386Z,1684.0999
2023-05-05T09:58:20.188Z,1536.3
2023-05-05T09:59:29.849Z,435.70001
2023-05-05T10:00:39.549Z,689.20001
2023-05-05T10:01:48.270Z,507.5
2023-05-05T10:02:56.994Z,1500.4
2023-05-05T10:04:05.746Z,633.90002
2023-05-05T10:05:14.504Z,859.29998
2023-05-05T10:06:23.170Z,522.20001
2023-05-05T10:07:31.932Z,1438.6999
2023-05-05T10:08:39.651Z,206.3
2023-05-05T10:09:49.361Z,391.5
2023-05-05T10:10:58.109Z,560.5
2023-05-05T10:12:06.970Z,815.29998
2023-05-05T10:13:16.745Z,191.3
2023-05-05T10:14:26.390Z,653.59997
2023-05-05T10:15:36.222Z,564.09997
2023-05-05T10:16:45.922Z,637.40002
2023-05-05T10:18:06.612Z,825.90002
2023-05-05T10:19:06.204Z,549.59997
2023-05-05T10:20:13.903Z,851.70001
2023-05-05T10:21:23.647Z,747.5
2023-05-05T10:22:32.407Z,784.20001
2023-05-05T10:23:42.089Z,1029.0999
2023-05-05T10:24:51.815Z,566.59997
2023-05-05T10:26:00.505Z,0.6
2023-05-05T10:27:10.125Z,1.2
2023-05-05T10:28:19.946Z,0.4
2023-05-05T10:29:29.727Z,0.9
2023-05-05T10:30:39.575Z,0.5
2023-05-05T10:31:49.206Z,1
2023-05-05T10:33:08.226Z,1.3
2023-05-05T10:34:09.725Z,0.9
2023-05-05T10:35:18.330Z,0.3
2023-05-05T10:36:27.861Z,0.7
2023-05-05T10:37:35.488Z,0.1
2023-05-05T10:38:43.158Z,0.7
2023-05-05T10:39:52.928Z,1.6
2023-05-05T10:41:02.587Z,1.3
2023-05-05T10:42:10.257Z,1.1
2023-05-05T10:43:19.945Z,0.7
2023-05-05T10:44:29.728Z,0.4
2023-05-05T10:45:38.534Z,1.3
2023-05-05T10:46:47.335Z,0.3
2023-05-05T10:47:54.883Z,0.5
2023-05-05T10:49:04.569Z,0.7
2023-05-05T10:50:13.250Z,1
2023-05-05T10:51:31.415Z,1
2023-05-05T10:52:33.707Z,0.7
2023-05-05T10:53:43.730Z,1
2023-05-05T10:54:52.389Z,0.5
2023-05-05T10:56:01.072Z,0.4
2023-05-05T10:57:09.826Z,0.9
2023-05-05T10:58:19.649Z,2.4
2023-05-05T10:59:28.281Z,0.3
2023-05-05T11:00:36.961Z,0.8
2023-05-05T11:01:46.614Z,1.2
2023-05-05T11:02:56.438Z,0.5
2023-05-05T11:04:06.023Z,1.5
2023-05-05T11:05:15.715Z,0.8
2023-05-05T11:06:23.357Z,0.4
2023-05-05T11:07:33.142Z,0.4
2023-05-05T11:08:41.811Z,1.1
2023-05-05T11:09:49.542Z,0.4
2023-05-05T11:10:59.198Z,1
2023-05-05T11:12:07.928Z,0.7
2023-05-05T11:13:16.703Z,0.7
2023-05-05T11:14:25.311Z,1.2
2023-05-05T11:15:33.026Z,0.7
2023-05-05T11:16:42.776Z,0.4
2023-05-05T11:17:52.517Z,0.8
2023-05-05T11:19:02.243Z,0.8
2023-05-05T11:20:11.846Z,0.2
2023-05-05T11:21:21.568Z,0.8
2023-05-05T11:22:31.286Z,5.6
2023-05-05T11:23:39.952Z,0.7
2023-05-05T11:24:47.628Z,0.3
2023-05-05T11:25:57.330Z,0.6
2023-05-05T11:27:07.066Z,0.8
2023-05-05T11:28:14.714Z,0.5
2023-05-05T11:29:24.560Z,0.3
2023-05-05T11:30:33.253Z,0.9
2023-05-05T11:31:42.095Z,1
2023-05-05T11:32:51.733Z,0.5
2023-05-05T11:34:00.397Z,0.9
2023-05-05T11:35:10.238Z,0.7
2023-05-05T11:36:19.955Z,10.9
2023-05-05T11:37:28.617Z,0.6
2023-05-05T11:38:38.329Z,1.2
2023-05-05T11:39:47.072Z,1.4
2023-05-05T11:40:55.761Z,1
2023-05-05T11:42:09.586Z,0.8
2023-05-05T11:43:15.165Z,2.1
2023-05-05T11:44:24.813Z,0.2
2023-05-05T11:45:33.536Z,0.5
2023-05-05T11:46:41.311Z,1.4
2023-05-05T11:47:50.944Z,0.5
2023-05-05T11:48:59.595Z,0.7
2023-05-05T11:50:08.562Z,0.5
2023-05-05T11:51:18.051Z,1.5
2023-05-05T11:52:25.668Z,1.2
2023-05-05T11:53:35.332Z,1.2
2023-05-05T11:54:44.028Z,0.9
2023-05-05T11:55:52.733Z,0.6
2023-05-05T11:57:02.427Z,0.6
2023-05-05T11:58:11.115Z,0.9
2023-05-05T11:59:20.867Z,0.6
2023-05-05T12:00:29.587Z,1.7
2023-05-05T12:01:37.364Z,0.3
2023-05-05T12:02:47.144Z,1.4
2023-05-05T12:03:56.994Z,0.9
2023-05-05T12:05:05.549Z,0.9
2023-05-05T12:06:15.376Z,1.6
2023-05-05T12:07:25.254Z,1.5
2023-05-05T12:08:33.848Z,6.1
2023-05-05T12:09:41.530Z,0.4
2023-05-05T12:10:49.245Z,0.2
2023-05-05T12:11:58.934Z,1
2023-05-05T12:13:07.653Z,1.3
2023-05-05T12:14:14.395Z,0.8
2023-05-05T12:15:24.024Z,1
2023-05-05T12:16:32.830Z,2
2023-05-05T12:17:42.777Z,1.1
2023-05-05T12:18:51.257Z,1
2023-05-05T12:19:59.965Z,0.5
2023-05-05T12:21:08.800Z,0.4
2023-05-05T12:22:16.517Z,0.9
2023-05-05T12:23:26.436Z,0.2
2023-05-05T12:24:36.072Z,1
2023-05-05T12:25:44.669Z,0.6
2023-05-05T12:26:54.400Z,0.4
2023-05-05T12:28:03.098Z,1
2023-05-05T12:29:11.778Z,0.9
2023-05-05T12:30:20.473Z,0.4
2023-05-05T12:31:29.130Z,0.6
2023-05-05T12:32:38.962Z,1.2
2023-05-05T12:33:48.701Z,1.2
2023-05-05T12:34:56.363Z,1
2023-05-05T12:36:06.047Z,1.2
2023-05-05T12:37:14.728Z,0.5
2023-05-05T12:38:23.446Z,1
2023-05-05T12:39:32.321Z,1.3
2023-05-05T12:40:41.012Z,0.9
2023-05-05T12:41:50.770Z,0.8
2023-05-05T12:43:00.523Z,0.4
2023-05-05T12:44:08.197Z,0.7
2023-05-05T12:45:17.877Z,0.6
2023-05-05T12:46:26.632Z,0.6
2023-05-05T12:47:35.284Z,2.1
2023-05-05T12:48:47.366Z,1.1
2023-05-05T12:49:54.682Z,0.9
2023-05-05T12:51:04.368Z,1
2023-05-05T12:52:13.052Z,0.9
2023-05-05T12:53:20.779Z,1.5
2023-05-05T12:54:30.540Z,0.3
2023-05-05T12:55:40.227Z,0.4
2023-05-05T12:56:48.895Z,0.5
2023-05-05T12:57:56.567Z,1.3
2023-05-05T12:59:04.291Z,1
2023-05-05T13:00:13.943Z,0.7
2023-05-05T13:01:23.705Z,1.1
2023-05-05T13:02:32.623Z,2.7
2023-05-05T13:03:42.378Z,1
2023-05-05T13:04:50.003Z,0.7
2023-05-05T13:05:58.677Z,0.6
2023-05-05T13:07:08.472Z,0.3
2023-05-05T13:08:17.137Z,0.4
2023-05-05T13:09:26.782Z,1.6
2023-05-05T13:10:35.517Z,1.3
2023-05-05T13:11:45.316Z,0.6
2023-05-05T13:12:54.952Z,1.6
2023-05-05T13:14:03.618Z,0.7
2023-05-05T13:15:14.864Z,1
2023-05-05T13:16:23.898Z,1
2023-05-05T13:17:32.792Z,1.5
2023-05-05T13:18:42.082Z,0.5
2023-05-05T13:19:50.797Z,1.1
2023-05-05T13:20:58.468Z,1.5
2023-05-05T13:22:08.129Z,0.5
2023-05-05T13:23:17.915Z,0.5
2023-05-05T13:24:34.846Z,0.3
2023-05-05T13:25:38.353Z,1.3
2023-05-05T13:26:48.125Z,0.7
2023-05-05T13:27:57.742Z,0.9
2023-05-05T13:29:07.406Z,0.5
2023-05-05T13:30:15.192Z,0.8
2023-05-05T13:31:24.946Z,0.6
2023-05-05T13:32:33.547Z,0.9
2023-05-05T13:33:43.321Z,0.4
2023-05-05T13:34:52.054Z,1.3
2023-05-05T13:35:59.731Z,1.1
2023-05-05T13:37:09.374Z,0.7
2023-05-05T13:38:18.032Z,1.1
2023-05-05T13:39:26.779Z,0.4
2023-05-05T13:40:36.524Z,0.6
2023-05-05T13:41:45.191Z,1.4
2023-05-05T13:42:55.084Z,0.8
2023-05-05T13:44:04.678Z,1.1
2023-05-05T13:45:12.377Z,1.3
2023-05-05T13:46:22.132Z,3.1
2023-05-05T13:47:30.891Z,0.5
2023-05-05T13:48:37.629Z,0.5
2023-05-05T13:49:47.430Z,1
2023-05-05T13:50:57.056Z,1.4
2023-05-05T13:52:05.720Z,1
2023-05-05T13:53:14.447Z,0.4
2023-05-05T13:54:23.200Z,0.7
2023-05-05T13:55:32.908Z,1.3
2023-05-05T13:56:42.599Z,0.6
2023-05-05T13:57:52.290Z,1.6
2023-05-05T13:59:02.216Z,1
2023-05-05T14:00:10.710Z,1.4
2023-05-05T14:01:19.433Z,0.5
2023-05-05T14:02:29.122Z,0.8
2023-05-05T14:03:36.806Z,0.6
2023-05-05T14:04:46.473Z,0.5
2023-05-05T14:05:56.163Z,0.5
2023-05-05T14:07:04.979Z,1.2
2023-05-05T14:08:14.691Z,0.9
2023-05-05T14:09:23.371Z,1.7
2023-05-05T14:10:32.046Z,3.1
2023-05-05T14:11:40.793Z,2.3
2023-05-05T14:12:49.540Z,0.3
2023-05-05T14:13:59.203Z,0.5
2023-05-05T14:15:09.257Z,0.6
2023-05-05T14:16:18.781Z,0.5
2023-05-05T14:17:27.416Z,0.9
2023-05-05T14:18:37.119Z,0.8
2023-05-05T14:19:46.750Z,0.9
2023-05-05T14:20:55.470Z,0.9
2023-05-05T14:22:04.169Z,0.4
2023-05-05T14:23:12.825Z,1.8
2023-05-05T14:24:20.552Z,2.6
2023-05-05T14:25:29.238Z,1
2023-05-05T14:26:39.018Z,1.2
2023-05-05T14:27:46.753Z,12
2023-05-05T14:28:56.456Z,0.7
2023-05-05T14:30:05.167Z,0.5
2023-05-05T14:31:14.936Z,0.6
2023-05-05T14:32:25.513Z,1.5
2023-05-05T14:33:34.221Z,0.9
2023-05-05T14:34:44.025Z,0.9
2023-05-05T14:35:54.704Z,1.3
2023-05-05T14:37:02.389Z,0.6
2023-05-05T14:38:12.108Z,0.5
2023-05-05T14:39:20.705Z,1.4
2023-05-05T14:40:30.404Z,0.9
2023-05-05T14:41:40.133Z,1
2023-05-05T14:42:47.845Z,0.6
2023-05-05T14:43:57.516Z,0.6
2023-05-05T14:45:06.534Z,0.8
2023-05-05T14:46:15.049Z,0.6
2023-05-05T14:47:24.850Z,0.7
2023-05-05T14:48:34.406Z,1.5
2023-05-05T14:49:43.097Z,0.6
2023-05-05T14:50:52.787Z,0.9
2023-05-05T14:52:02.539Z,4.4
2023-05-05T14:53:12.296Z,0.6
2023-05-05T14:54:27.723Z,1.2
2023-05-05T14:55:30.703Z,0.3
2023-05-05T14:56:40.394Z,0.3
2023-05-05T14:57:50.127Z,0.6
2023-05-05T14:58:59.814Z,0.5
2023-05-05T15:00:08.645Z,1.7
2023-05-05T15:01:17.365Z,0.9
2023-05-05T15:02:27.071Z,0.4
2023-05-05T15:03:35.815Z,0.3
2023-05-05T15:04:44.378Z,0.9
2023-05-05T15:05:55.049Z,1.1
2023-05-05T15:07:04.748Z,0.7
2023-05-05T15:08:14.454Z,0.6
2023-05-05T15:09:23.135Z,1.2
2023-05-05T15:10:31.839Z,0.7
2023-05-05T15:11:41.495Z,0.5
2023-05-05T15:12:50.166Z,0.9
2023-05-05T15:13:58.930Z,1.9
2023-05-05T15:15:09.025Z,1.3
2023-05-05T15:16:18.351Z,0.5
2023-05-05T15:17:27.057Z,0.5
2023-05-05T15:18:35.787Z,0.5
2023-05-05T15:19:44.663Z,1.5
2023-05-05T15:20:54.143Z,0.6
2023-05-05T15:22:02.804Z,0.5
2023-05-05T15:23:11.517Z,0.4
2023-05-05T15:24:21.199Z,1
2023-05-05T15:25:29.885Z,1.4
2023-05-05T15:26:38.565Z,1.1
2023-05-05T15:27:47.268Z,0.8
2023-05-05T15:28:55.970Z,1.9
2023-05-05T15:30:05.646Z,0.8
2023-05-05T15:31:14.366Z,0.7
2023-05-05T15:32:23.066Z,1
2023-05-05T15:33:32.800Z,0.9
2023-05-05T15:34:41.496Z,1.6
2023-05-05T15:35:50.245Z,2
2023-05-05T15:36:58.961Z,2.4
2023-05-05T15:38:07.645Z,1.4
2023-05-05T15:39:17.323Z,0.9
2023-05-05T15:40:26.063Z,0.8
2023-05-05T15:41:33.852Z,0.4
2023-05-05T15:42:43.701Z,1.2
2023-05-05T15:43:52.411Z,1.2
2023-05-05T15:45:01.303Z,0.8
2023-05-05T15:46:10.112Z,0.4
2023-05-05T15:47:18.839Z,1.2
2023-05-05T15:48:28.521Z,2.3
2023-05-05T15:49:37.201Z,0.4
2023-05-05T15:50:46.933Z,0.9
2023-05-05T15:51:56.727Z,0.6
2023-05-05T15:53:05.274Z,0.7
2023-05-05T15:54:14.962Z,0.9
2023-05-05T15:55:24.675Z,0.2